createdAt,value
2018-03-20T00:00:45.567Z,-3.21
2018-03-20T00:03:13.097Z,-3.20
2018-03-20T00:05:40.620Z,-3.21
2018-03-20T00:08:08.142Z,-3.31
2018-03-20T00:10:35.688Z,-3.36
2018-03-20T00:13:03.248Z,-3.35
2018-03-20T00:15:30.749Z,-3.34
2018-03-20T00:17:59.155Z,-3.37
2018-03-20T00:20:26.682Z,-3.37
2018-03-20T00:22:54.402Z,-3.44
2018-03-20T00:25:22.814Z,-3.45
2018-03-20T00:27:50.411Z,-3.47
2018-03-20T00:30:18.115Z,-3.51
2018-03-20T00:32:45.608Z,-3.46
2018-03-20T00:35:13.223Z,-3.50
2018-03-20T00:37:40.757Z,-3.52
2018-03-20T00:40:08.320Z,-3.52
2018-03-20T00:42:35.868Z,-3.56
2018-03-20T00:45:03.418Z,-3.51
2018-03-20T00:47:30.929Z,-3.51
2018-03-20T00:49:58.417Z,-3.59
2018-03-20T00:52:25.999Z,-3.65
2018-03-20T00:54:53.552Z,-3.64
2018-03-20T00:57:21.060Z,-3.63
2018-03-20T00:59:48.570Z,-3.65
2018-03-20T01:02:16.076Z,-3.66
2018-03-20T01:04:43.614Z,-3.70
2018-03-20T01:07:11.152Z,-3.75
2018-03-20T01:09:38.732Z,-3.76
2018-03-20T01:12:06.304Z,-3.73
2018-03-20T01:14:33.809Z,-3.67
2018-03-20T01:17:01.351Z,-3.61
2018-03-20T01:19:28.909Z,-3.54
2018-03-20T01:21:56.465Z,-3.42
2018-03-20T01:24:23.994Z,-3.33
2018-03-20T01:26:51.588Z,-3.25
2018-03-20T01:29:19.108Z,-3.19
2018-03-20T01:31:46.637Z,-3.11
2018-03-20T01:34:14.172Z,-3.03
2018-03-20T01:36:41.730Z,-2.99
2018-03-20T01:39:09.285Z,-2.92
2018-03-20T01:41:36.789Z,-2.85
2018-03-20T01:44:04.407Z,-2.80
2018-03-20T01:46:31.952Z,-2.73
2018-03-20T01:48:59.460Z,-2.72
2018-03-20T01:51:26.949Z,-2.64
2018-03-20T01:53:54.497Z,-2.60
2018-03-20T01:56:22.025Z,-2.54
2018-03-20T01:58:49.558Z,-2.49
2018-03-20T02:01:17.065Z,-2.45
2018-03-20T02:03:44.591Z,-2.43
2018-03-20T02:06:12.121Z,-2.40
2018-03-20T02:08:39.650Z,-2.34
2018-03-20T02:11:07.169Z,-2.31
2018-03-20T02:13:34.708Z,-2.26
2018-03-20T02:16:02.223Z,-2.22
2018-03-20T02:18:29.729Z,-2.11
2018-03-20T02:20:57.244Z,-2.08
2018-03-20T02:23:24.784Z,-2.06
2018-03-20T02:25:52.350Z,-2.01
2018-03-20T02:28:19.914Z,-1.91
2018-03-20T02:30:47.452Z,-1.90
2018-03-20T02:33:14.972Z,-1.83
2018-03-20T02:35:42.496Z,-1.76
2018-03-20T02:38:10.051Z,-1.73
2018-03-20T02:40:37.571Z,-1.66
2018-03-20T02:43:05.082Z,-1.63
2018-03-20T02:45:32.569Z,-1.59
2018-03-20T02:48:00.193Z,-1.56
2018-03-20T02:50:28.166Z,-1.47
2018-03-20T02:52:55.742Z,-1.42
2018-03-20T02:55:23.346Z,-1.39
2018-03-20T02:57:50.873Z,-1.38
2018-03-20T03:00:18.391Z,-1.32
2018-03-20T03:02:45.910Z,-1.30
2018-03-20T03:05:13.458Z,-1.28
2018-03-20T03:07:40.963Z,-1.22
2018-03-20T03:10:08.491Z,-1.27
2018-03-20T03:12:35.996Z,-1.21
2018-03-20T03:15:03.570Z,-1.21
2018-03-20T03:17:31.102Z,-1.12
2018-03-20T03:19:58.632Z,-1.09
2018-03-20T03:22:26.148Z,-1.07
2018-03-20T03:24:53.653Z,-1.06
2018-03-20T03:27:21.205Z,-1.07
2018-03-20T03:29:48.771Z,-1.06
2018-03-20T03:32:16.285Z,-1.04
2018-03-20T03:34:43.841Z,-1.02
2018-03-20T03:37:11.336Z,-1.01
2018-03-20T03:39:38.881Z,-1.03
2018-03-20T03:42:06.391Z,-1.03
2018-03-20T03:44:33.888Z,-1.04
2018-03-20T03:47:01.452Z,-1.15
2018-03-20T03:49:28.944Z,-1.16
2018-03-20T03:51:56.468Z,-1.24
2018-03-20T03:54:24.008Z,-1.27
2018-03-20T03:56:51.509Z,-1.31
2018-03-20T03:59:19.004Z,-1.30
2018-03-20T04:01:46.527Z,-1.32
2018-03-20T04:04:14.043Z,-1.28
2018-03-20T04:06:41.543Z,-1.30
2018-03-20T04:09:09.119Z,-1.32
2018-03-20T04:11:36.631Z,-1.34
2018-03-20T04:14:04.156Z,-1.43
2018-03-20T04:16:31.695Z,-1.38
2018-03-20T04:18:59.224Z,-1.51
2018-03-20T04:21:26.775Z,-1.47
2018-03-20T04:23:54.287Z,-1.48
2018-03-20T04:26:21.811Z,-1.41
2018-03-20T04:28:49.364Z,-1.43
2018-03-20T04:31:16.905Z,-1.47
2018-03-20T04:33:44.444Z,-1.43
2018-03-20T04:36:11.937Z,-1.41
2018-03-20T04:38:39.492Z,-1.46
2018-03-20T04:41:07.016Z,-1.41
2018-03-20T04:43:34.517Z,-1.45
2018-03-20T04:46:02.019Z,-1.52
2018-03-20T04:48:29.590Z,-1.48
2018-03-20T04:50:57.088Z,-1.48
2018-03-20T04:53:24.614Z,-1.48
2018-03-20T04:55:52.142Z,-1.51
2018-03-20T04:58:19.691Z,-1.47
2018-03-20T05:00:47.200Z,-1.46
2018-03-20T05:03:14.737Z,-1.40
2018-03-20T05:05:42.260Z,-1.40
2018-03-20T05:08:09.803Z,-1.44
2018-03-20T05:10:37.316Z,-1.33
2018-03-20T05:13:05.687Z,-1.31
2018-03-20T05:15:33.249Z,-1.29
2018-03-20T05:18:00.772Z,-1.24
2018-03-20T05:20:33.931Z,-1.22
2018-03-20T05:23:06.988Z,-1.20
2018-03-20T05:25:34.546Z,-1.15
2018-03-20T05:28:02.071Z,-1.10
2018-03-20T05:30:29.657Z,-1.10
2018-03-20T05:32:57.225Z,-1.08
2018-03-20T05:35:24.805Z,-1.04
2018-03-20T05:37:52.381Z,-0.95
2018-03-20T05:40:19.896Z,-0.94
2018-03-20T05:42:47.453Z,-0.92
2018-03-20T05:45:14.964Z,-0.88
2018-03-20T05:47:42.506Z,-0.90
2018-03-20T05:53:19.877Z,-0.77
2018-03-20T05:55:47.388Z,-0.72
2018-03-20T05:58:14.920Z,-0.69
2018-03-20T06:00:42.500Z,-0.62
2018-03-20T06:03:10.061Z,-0.67
2018-03-20T06:05:37.611Z,-0.62
2018-03-20T06:08:05.171Z,-0.54
2018-03-20T06:10:32.735Z,-0.52
2018-03-20T06:13:01.149Z,-0.54
2018-03-20T06:15:28.731Z,-0.51
2018-03-20T06:17:56.295Z,-0.46
2018-03-20T06:20:24.343Z,-0.40
2018-03-20T06:22:51.865Z,-0.43
2018-03-20T06:25:19.631Z,-0.37
2018-03-20T06:27:47.184Z,-0.30
2018-03-20T06:30:14.723Z,-0.29
2018-03-20T06:32:42.242Z,-0.29
2018-03-20T06:35:09.768Z,-0.22
2018-03-20T06:37:37.297Z,-0.22
2018-03-20T06:40:04.863Z,-0.13
2018-03-20T06:42:32.516Z,-0.08
2018-03-20T06:45:00.067Z,0.00
2018-03-20T06:47:27.578Z,0.07
2018-03-20T06:49:55.139Z,0.09
2018-03-20T06:52:22.658Z,0.14
2018-03-20T06:54:50.169Z,0.18
2018-03-20T06:57:17.703Z,0.26
2018-03-20T06:59:45.221Z,0.28
2018-03-20T07:02:12.729Z,0.31
2018-03-20T07:04:40.250Z,0.38
2018-03-20T07:07:07.763Z,0.39
2018-03-20T07:09:35.288Z,0.43
2018-03-20T07:12:02.808Z,0.51
2018-03-20T07:14:30.335Z,0.54
2018-03-20T07:16:57.849Z,0.63
2018-03-20T07:19:25.369Z,0.61
2018-03-20T07:21:52.905Z,0.67
2018-03-20T07:24:20.439Z,0.72
2018-03-20T07:26:48.052Z,0.77
2018-03-20T07:29:15.631Z,0.76
2018-03-20T07:31:43.178Z,0.81
2018-03-20T07:34:10.771Z,0.82
2018-03-20T07:36:38.366Z,0.85
2018-03-20T07:39:05.923Z,0.88
2018-03-20T07:41:33.534Z,0.91
2018-03-20T07:44:01.064Z,0.96
2018-03-20T07:46:28.637Z,0.98
2018-03-20T07:48:56.194Z,1.03
2018-03-20T07:51:23.764Z,1.07
2018-03-20T07:53:51.306Z,1.11
2018-03-20T07:56:18.839Z,1.11
2018-03-20T07:58:46.395Z,1.14
2018-03-20T08:01:13.952Z,1.15
2018-03-20T08:03:41.488Z,1.23
2018-03-20T08:06:09.012Z,1.26
2018-03-20T08:08:36.517Z,1.27
2018-03-20T08:11:04.041Z,1.26
2018-03-20T08:13:31.565Z,1.31
2018-03-20T08:15:59.130Z,1.33
2018-03-20T08:18:26.705Z,1.35
2018-03-20T08:20:54.212Z,1.41
2018-03-20T08:23:21.730Z,1.43
2018-03-20T08:25:49.262Z,1.48
2018-03-20T08:28:16.831Z,1.45
2018-03-20T08:30:44.347Z,1.48
2018-03-20T08:33:11.869Z,1.51
2018-03-20T08:35:39.399Z,1.50
2018-03-20T08:38:06.958Z,1.53
2018-03-20T08:40:34.496Z,1.59
2018-03-20T08:43:02.017Z,1.57
2018-03-20T08:45:29.541Z,1.57
2018-03-20T08:47:57.068Z,1.61
2018-03-20T08:50:24.582Z,1.66
2018-03-20T08:52:52.104Z,1.63
2018-03-20T08:55:19.629Z,1.64
2018-03-20T08:57:47.140Z,1.68
2018-03-20T09:00:14.637Z,1.61
2018-03-20T09:02:42.158Z,1.64
2018-03-20T09:05:09.693Z,1.68
2018-03-20T09:07:37.192Z,1.72
2018-03-20T09:10:04.686Z,1.72
2018-03-20T09:12:32.250Z,1.75
2018-03-20T09:14:59.769Z,1.69
2018-03-20T09:17:27.282Z,1.68
2018-03-20T09:19:54.790Z,1.70
2018-03-20T09:22:22.327Z,1.71
2018-03-20T09:24:49.851Z,1.65
2018-03-20T09:27:17.354Z,1.52
2018-03-20T09:29:44.858Z,1.50
2018-03-20T09:32:12.396Z,1.48
2018-03-20T09:34:39.901Z,1.49
2018-03-20T09:37:07.415Z,1.52
2018-03-20T09:39:34.924Z,1.54
2018-03-20T09:42:02.459Z,1.51
2018-03-20T09:44:29.981Z,1.59
2018-03-20T09:46:57.492Z,1.63
2018-03-20T09:49:25.037Z,1.62
2018-03-20T09:51:52.528Z,1.62
2018-03-20T09:54:20.048Z,1.62
2018-03-20T09:56:47.560Z,1.72
2018-03-20T09:59:15.084Z,1.71
2018-03-20T10:01:42.585Z,1.73
2018-03-20T10:04:10.096Z,1.74
2018-03-20T10:06:37.640Z,1.74
2018-03-20T10:09:05.161Z,1.72
2018-03-20T10:11:32.677Z,1.74
2018-03-20T10:14:00.209Z,1.78
2018-03-20T10:16:27.738Z,1.83
2018-03-20T10:18:55.249Z,1.91
2018-03-20T10:21:22.756Z,1.99
2018-03-20T10:23:50.269Z,2.07
2018-03-20T10:26:17.831Z,2.10
2018-03-20T10:28:45.307Z,2.12
2018-03-20T10:31:12.835Z,2.17
2018-03-20T10:33:40.335Z,2.17
2018-03-20T10:36:08.292Z,2.20
2018-03-20T10:38:35.808Z,2.26
2018-03-20T10:41:03.319Z,2.34
2018-03-20T10:43:31.058Z,2.46
2018-03-20T10:45:58.552Z,2.62
2018-03-20T10:48:26.053Z,2.65
2018-03-20T10:50:53.550Z,2.80
2018-03-20T10:53:21.076Z,2.87
2018-03-20T10:55:48.621Z,2.84
2018-03-20T10:58:16.112Z,2.81
2018-03-20T11:00:48.416Z,2.91
2018-03-20T11:03:15.981Z,2.91
2018-03-20T11:05:43.489Z,3.05
2018-03-20T11:08:11.055Z,3.07
2018-03-20T11:10:38.594Z,3.16
2018-03-20T11:13:06.273Z,3.30
2018-03-20T11:15:33.785Z,3.63
2018-03-20T11:18:01.285Z,3.63
2018-03-20T11:20:28.794Z,3.57
2018-03-20T11:22:56.359Z,3.50
2018-03-20T11:25:23.877Z,3.71
2018-03-20T11:27:51.415Z,3.77
2018-03-20T11:30:18.979Z,3.85
2018-03-20T11:32:46.524Z,3.61
2018-03-20T11:35:14.024Z,3.52
2018-03-20T11:37:41.551Z,3.59
2018-03-20T11:40:09.124Z,3.80
2018-03-20T11:42:36.645Z,4.04
2018-03-20T11:45:04.137Z,4.08
2018-03-20T11:47:31.694Z,4.18
2018-03-20T11:49:59.198Z,4.23
2018-03-20T11:52:26.707Z,3.96
2018-03-20T11:54:54.236Z,4.08
2018-03-20T11:57:21.707Z,4.26
2018-03-20T11:59:49.232Z,4.28
2018-03-20T12:02:17.214Z,4.47
2018-03-20T12:04:44.757Z,4.54
2018-03-20T12:07:12.276Z,4.60
2018-03-20T12:09:46.344Z,4.77
2018-03-20T12:12:13.876Z,4.69
2018-03-20T12:14:41.389Z,4.92
2018-03-20T12:17:08.921Z,5.00
2018-03-20T12:19:36.475Z,4.81
2018-03-20T12:22:03.949Z,4.87
2018-03-20T12:24:31.468Z,5.10
2018-03-20T12:26:58.976Z,5.06
2018-03-20T12:29:26.489Z,4.99
2018-03-20T12:31:54.011Z,5.00
2018-03-20T12:34:22.249Z,5.07
2018-03-20T12:36:49.775Z,5.21
2018-03-20T12:39:17.304Z,4.99
2018-03-20T12:41:44.817Z,4.98
2018-03-20T12:44:12.349Z,4.95
2018-03-20T12:46:40.643Z,4.97
2018-03-20T12:49:08.146Z,4.94
2018-03-20T12:51:35.666Z,5.10
2018-03-20T12:54:03.141Z,5.17
2018-03-20T12:56:30.661Z,5.25
2018-03-20T12:58:58.148Z,5.33
2018-03-20T13:01:25.664Z,5.31
2018-03-20T13:03:53.246Z,5.35
2018-03-20T13:06:20.759Z,5.36
2018-03-20T13:08:48.331Z,5.32
2018-03-20T13:11:15.865Z,5.41
2018-03-20T13:13:43.435Z,5.59
2018-03-20T13:16:10.919Z,5.41
2018-03-20T13:18:38.517Z,5.45
2018-03-20T13:21:06.017Z,5.42
2018-03-20T13:23:33.542Z,5.44
2018-03-20T13:26:01.103Z,5.43
2018-03-20T13:28:28.648Z,5.37
2018-03-20T13:30:56.169Z,5.74
2018-03-20T13:33:23.683Z,5.80
2018-03-20T13:35:51.543Z,5.77
2018-03-20T13:38:19.115Z,5.68
2018-03-20T13:40:46.657Z,5.55
2018-03-20T13:43:14.185Z,5.54
2018-03-20T13:45:41.690Z,5.63
2018-03-20T13:48:09.225Z,5.70
2018-03-20T13:50:36.740Z,5.82
2018-03-20T13:53:05.168Z,5.91
2018-03-20T13:55:32.678Z,5.80
2018-03-20T13:58:00.204Z,6.03
2018-03-20T14:00:28.627Z,5.76
2018-03-20T14:02:56.156Z,5.88
2018-03-20T14:05:24.392Z,5.80
2018-03-20T14:07:51.891Z,5.81
2018-03-20T14:10:19.425Z,5.85
2018-03-20T14:12:46.959Z,5.82
2018-03-20T14:15:14.456Z,5.92
2018-03-20T14:17:41.974Z,5.95
2018-03-20T14:20:09.480Z,5.87
2018-03-20T14:22:36.988Z,5.91
2018-03-20T14:25:04.499Z,6.02
2018-03-20T14:27:31.980Z,6.11
2018-03-20T14:29:59.527Z,6.26
2018-03-20T14:32:27.048Z,6.17
2018-03-20T14:34:54.601Z,6.23
2018-03-20T14:37:22.120Z,6.39
2018-03-20T14:39:49.659Z,6.49
2018-03-20T14:42:17.165Z,6.14
2018-03-20T14:44:44.679Z,6.00
2018-03-20T14:47:12.183Z,6.17
2018-03-20T14:49:39.689Z,6.13
2018-03-20T14:52:07.189Z,6.23
2018-03-20T14:54:34.708Z,6.22
2018-03-20T14:57:02.231Z,6.12
2018-03-20T14:59:29.725Z,6.26
2018-03-20T15:01:57.230Z,6.18
2018-03-20T15:04:24.737Z,5.91
2018-03-20T15:06:52.263Z,5.68
2018-03-20T15:09:19.852Z,5.73
2018-03-20T15:11:47.337Z,5.87
2018-03-20T15:14:14.824Z,5.99
2018-03-20T15:16:42.401Z,5.74
2018-03-20T15:19:09.908Z,5.57
2018-03-20T15:21:37.562Z,5.65
2018-03-20T15:24:05.088Z,5.74
2018-03-20T15:26:32.585Z,5.60
2018-03-20T15:29:00.080Z,5.79
2018-03-20T15:31:27.557Z,5.78
2018-03-20T15:33:55.061Z,5.83
2018-03-20T15:36:22.583Z,6.04
2018-03-20T15:38:50.098Z,5.99
2018-03-20T15:41:17.598Z,5.98
2018-03-20T15:43:45.196Z,5.91
2018-03-20T15:46:12.677Z,5.70
2018-03-20T15:48:40.179Z,5.63
2018-03-20T15:51:07.706Z,5.68
2018-03-20T15:53:35.203Z,5.72
2018-03-20T15:58:37.085Z,5.59
2018-03-20T16:01:04.594Z,5.59
2018-03-20T16:03:32.165Z,5.57
2018-03-20T16:06:00.359Z,5.49
2018-03-20T16:08:27.892Z,5.51
2018-03-20T16:10:55.394Z,5.46
2018-03-20T16:13:22.916Z,5.39
2018-03-20T16:15:50.518Z,5.39
2018-03-20T16:18:18.386Z,5.29
2018-03-20T16:20:45.965Z,5.29
2018-03-20T16:23:13.491Z,5.36
2018-03-20T16:25:41.034Z,5.25
2018-03-20T16:28:08.571Z,5.21
2018-03-20T16:30:36.118Z,5.17
2018-03-20T16:33:03.631Z,5.13
2018-03-20T16:35:31.142Z,5.11
2018-03-20T16:37:58.652Z,5.05
2018-03-20T16:40:26.187Z,5.08
2018-03-20T16:42:53.679Z,5.03
2018-03-20T16:45:21.232Z,4.97
2018-03-20T16:47:52.319Z,4.97
2018-03-20T16:50:19.817Z,4.92
2018-03-20T16:52:47.324Z,4.82
2018-03-20T16:55:14.811Z,4.83
2018-03-20T16:57:42.717Z,4.78
2018-03-20T17:00:10.268Z,4.75
2018-03-20T17:02:37.833Z,4.70
2018-03-20T17:05:05.926Z,4.65
2018-03-20T17:07:33.701Z,4.59
2018-03-20T17:10:01.202Z,4.60
2018-03-20T17:12:28.742Z,4.56
2018-03-20T17:14:56.280Z,4.49
2018-03-20T17:17:23.844Z,4.46
2018-03-20T17:19:51.397Z,4.37
2018-03-20T17:22:18.996Z,4.32
2018-03-20T17:24:48.239Z,4.27
2018-03-20T17:27:15.965Z,4.26
2018-03-20T17:29:43.492Z,4.18
2018-03-20T17:32:11.002Z,4.17
2018-03-20T17:34:38.622Z,4.13
2018-03-20T17:37:06.154Z,4.06
2018-03-20T17:39:33.873Z,4.00
2018-03-20T17:42:01.392Z,3.96
2018-03-20T17:44:28.950Z,3.95
2018-03-20T17:49:49.783Z,3.90
2018-03-20T17:52:17.324Z,3.81
2018-03-20T17:54:44.865Z,3.79
2018-03-20T17:57:12.367Z,3.67
2018-03-20T17:59:40.509Z,3.66
2018-03-20T18:02:09.326Z,3.61
2018-03-20T18:04:37.600Z,3.61
2018-03-20T18:07:05.164Z,3.50
2018-03-20T18:09:32.706Z,3.51
2018-03-20T18:12:01.213Z,3.44
2018-03-20T18:14:28.764Z,3.38
2018-03-20T18:16:56.369Z,3.36
2018-03-20T18:19:23.871Z,3.30
2018-03-20T18:21:51.732Z,3.23
2018-03-20T18:24:19.279Z,3.18
2018-03-20T18:26:46.826Z,3.24
2018-03-20T18:29:14.400Z,3.22
2018-03-20T18:31:41.988Z,3.15
2018-03-20T18:34:11.507Z,3.13
2018-03-20T18:36:39.016Z,3.09
2018-03-20T18:39:06.574Z,3.02
2018-03-20T18:41:35.279Z,3.01
2018-03-20T18:44:02.822Z,2.96
2018-03-20T18:46:30.377Z,2.91
2018-03-20T18:48:57.904Z,2.88
2018-03-20T18:51:25.435Z,2.86
2018-03-20T18:53:52.981Z,2.81
2018-03-20T18:56:22.154Z,2.80
2018-03-20T18:58:49.762Z,2.74
2018-03-20T19:01:17.284Z,2.66
2018-03-20T19:03:44.789Z,2.67
2018-03-20T19:06:12.297Z,2.60
2018-03-20T19:08:40.095Z,2.59
2018-03-20T19:11:07.619Z,2.53
2018-03-20T19:13:35.118Z,2.49
2018-03-20T19:16:02.726Z,2.45
2018-03-20T19:18:30.221Z,2.40
2018-03-20T19:20:57.781Z,2.37
2018-03-20T19:23:25.926Z,2.37
2018-03-20T19:25:53.524Z,2.23
2018-03-20T19:28:21.451Z,2.21
2018-03-20T19:30:50.366Z,2.18
2018-03-20T19:33:18.032Z,2.16
2018-03-20T19:35:46.606Z,2.15
2018-03-20T19:38:14.181Z,2.12
2018-03-20T19:40:41.725Z,2.08
2018-03-20T19:43:09.217Z,2.02
2018-03-20T19:45:36.711Z,2.00
2018-03-20T19:48:04.201Z,1.98
2018-03-20T19:50:33.035Z,1.95
2018-03-20T19:53:00.564Z,1.94
2018-03-20T19:55:28.216Z,1.91
2018-03-20T19:57:55.714Z,1.89
2018-03-20T20:00:23.241Z,1.94
2018-03-20T20:02:50.917Z,1.85
2018-03-20T20:05:19.090Z,1.82
2018-03-20T20:07:46.945Z,1.83
2018-03-20T20:23:09.640Z,1.59
2018-03-20T20:25:37.888Z,1.57
2018-03-20T20:28:05.593Z,1.53
2018-03-20T20:30:33.355Z,1.52
2018-03-20T20:33:00.934Z,1.51
2018-03-20T20:35:28.556Z,1.48
2018-03-20T20:37:56.156Z,1.47
2018-03-20T20:40:23.779Z,1.44
2018-03-20T20:42:52.342Z,1.40
2018-03-20T20:45:20.925Z,1.36
2018-03-20T20:47:48.637Z,1.39
2018-03-20T20:50:18.296Z,1.32
2018-03-20T20:52:45.904Z,1.32
2018-03-20T20:55:13.759Z,1.29
2018-03-20T20:57:41.585Z,1.25
2018-03-20T21:00:09.108Z,1.16
2018-03-20T21:02:37.213Z,1.07
2018-03-20T21:05:04.772Z,1.00
2018-03-20T21:07:32.375Z,0.95
2018-03-20T21:09:59.915Z,0.96
2018-03-20T21:12:27.466Z,0.85
2018-03-20T21:14:55.070Z,0.78
2018-03-20T21:17:22.611Z,0.74
2018-03-20T21:20:24.908Z,0.68
2018-03-20T21:22:54.350Z,0.54
2018-03-20T21:25:21.932Z,0.48
2018-03-20T21:27:49.626Z,0.50
2018-03-20T21:30:17.177Z,0.48
2018-03-20T21:32:44.732Z,0.42
2018-03-20T21:35:12.495Z,0.35
2018-03-20T21:50:35.127Z,0.02
2018-03-20T21:53:03.893Z,-0.05
2018-03-20T21:55:32.145Z,-0.04
2018-03-20T21:58:00.007Z,-0.10
2018-03-20T22:00:34.632Z,-0.12
2018-03-20T22:03:02.236Z,-0.18
2018-03-20T22:05:29.857Z,-0.22
2018-03-20T22:07:57.459Z,-0.27
2018-03-20T22:10:25.067Z,-0.27
2018-03-20T22:12:52.583Z,-0.32
2018-03-20T22:15:20.163Z,-0.29
2018-03-20T22:17:47.675Z,-0.33
2018-03-20T22:20:15.212Z,-0.32
2018-03-20T22:22:42.746Z,-0.35
2018-03-20T22:25:10.295Z,-0.48
2018-03-20T22:27:37.952Z,-0.47
2018-03-20T22:30:05.548Z,-0.44
2018-03-20T22:32:33.101Z,-0.61
2018-03-20T22:35:00.655Z,-0.60
2018-03-20T22:37:28.329Z,-0.55
2018-03-20T22:39:55.880Z,-0.53
2018-03-20T22:42:23.441Z,-0.58
2018-03-20T22:44:51.087Z,-0.60
2018-03-20T22:47:18.704Z,-0.59
2018-03-20T22:49:46.249Z,-0.63
2018-03-20T22:52:13.906Z,-0.66
2018-03-20T22:54:41.407Z,-0.66
2018-03-20T22:57:09.188Z,-0.68
2018-03-20T22:59:36.848Z,-0.70
2018-03-20T23:02:04.487Z,-0.72
2018-03-20T23:04:32.040Z,-0.85
2018-03-20T23:06:59.663Z,-0.98
2018-03-20T23:09:27.261Z,-1.02
2018-03-20T23:11:54.789Z,-1.00
2018-03-20T23:14:22.358Z,-1.01
2018-03-20T23:16:49.914Z,-1.00
2018-03-20T23:19:18.085Z,-0.99
2018-03-20T23:21:45.714Z,-0.98
2018-03-20T23:24:13.237Z,-0.99
2018-03-20T23:26:40.818Z,-1.03
2018-03-20T23:29:08.528Z,-1.11
2018-03-20T23:31:36.170Z,-1.23
2018-03-20T23:34:03.726Z,-1.31
2018-03-20T23:36:31.287Z,-1.36
2018-03-20T23:38:59.069Z,-1.35
2018-03-20T23:41:26.712Z,-1.32
2018-03-20T23:43:54.989Z,-1.29
2018-03-20T23:46:23.433Z,-1.29
2018-03-20T23:48:51.499Z,-1.29
2018-03-20T23:51:19.107Z,-1.25
2018-03-20T23:53:46.785Z,-1.33
2018-03-20T23:56:14.549Z,-1.34
2018-03-20T23:58:42.335Z,-1.36
